Time;durP1;ratioP1;P1;durP2;ratioP2;P2;SDS_P1;SDS_P2;PMS_P1;PMS_P2;Temp;Humidity;BMP_temperature;BMP_pressure;BME280_temperature;BME280_humidity;BME280_pressure;Samples;Min_cycle;Max_cycle;Signal;HPM_P1;HPM_P2
2024/02/04 00:01:56;;;;;;;1.40;1.25;;;;;;;;;;6159501;23;20009;-71
2024/02/04 00:04:24;;;;;;;2.35;1.00;;;;;;;;;;6185743;23;20108;-72
2024/02/04 00:06:51;;;;;;;1.17;1.17;;;;;;;;;;6186081;23;20038;-70
2024/02/04 00:09:18;;;;;;;2.15;1.30;;;;;;;;;;6159184;23;20009;-68
2024/02/04 00:11:44;;;;;;;1.80;1.20;;;;;;;;;;6160065;23;20012;-67
2024/02/04 00:14:10;;;;;;;1.95;1.23;;;;;;;;;;6185570;23;20415;-72
2024/02/04 00:16:38;;;;;;;1.40;1.15;;;;;;;;;;6158790;23;20020;-68
2024/02/04 00:19:06;;;;;;;3.13;1.05;;;;;;;;;;6185580;23;20048;-71
2024/02/04 00:21:31;;;;;;;1.58;1.00;;;;;;;;;;6185691;23;20071;-69
2024/02/04 00:23:59;;;;;;;1.65;1.20;;;;;;;;;;6158443;23;20427;-69
2024/02/04 00:26:25;;;;;;;1.58;1.33;;;;;;;;;;6135031;23;20043;-70
2024/02/04 00:28:51;;;;;;;2.30;1.27;;;;;;;;;;6185848;23;20086;-72
2024/02/04 00:31:19;;;;;;;1.38;1.08;;;;;;;;;;6165311;23;20013;-72
2024/02/04 00:33:45;;;;;;;2.03;1.20;;;;;;;;;;6166739;23;20025;-72
2024/02/04 00:36:11;;;;;;;1.55;1.40;;;;;;;;;;6164913;23;20342;-71
2024/02/04 00:38:38;;;;;;;1.85;1.30;;;;;;;;;;6165351;23;20004;-72
2024/02/04 00:41:08;;;;;;;1.40;1.25;;;;;;;;;;6166819;23;20005;-73
2024/02/04 00:43:35;;;;;;;1.50;1.40;;;;;;;;;;6164519;23;20005;-73
2024/02/04 00:46:01;;;;;;;1.52;1.30;;;;;;;;;;6192902;23;20036;-71
2024/02/04 00:48:28;;;;;;;3.40;1.13;;;;;;;;;;6166838;23;20008;-74
2024/02/04 00:50:53;;;;;;;1.75;1.27;;;;;;;;;;6165533;23;20112;-71
2024/02/04 00:53:27;;;;;;;3.30;1.60;;;;;;;;;;6191325;23;20005;-72
2024/02/04 00:55:52;;;;;;;1.85;1.38;;;;;;;;;;6165272;23;20001;-73
2024/02/04 00:58:18;;;;;;;2.35;1.38;;;;;;;;;;6191842;23;20054;-72
2024/02/04 01:00:44;;;;;;;1.60;1.40;;;;;;;;;;6140288;23;20414;-73
2024/02/04 01:03:11;;;;;;;1.98;1.02;;;;;;;;;;6190629;23;20414;-74
2024/02/04 01:05:46;;;;;;;0.88;0.88;;;;;;;;;;6190430;23;20383;-72
2024/02/04 01:08:11;;;;;;;2.05;1.20;;;;;;;;;;6164857;23;20364;-72
2024/02/04 01:10:38;;;;;;;2.88;1.30;;;;;;;;;;6189566;23;20004;-69
2024/02/04 01:13:04;;;;;;;1.63;1.00;;;;;;;;;;6158649;23;20048;-69
2024/02/04 01:15:31;;;;;;;1.75;1.20;;;;;;;;;;6158821;23;20040;-70
2024/02/04 01:17:56;;;;;;;1.02;0.98;;;;;;;;;;6158304;23;20013;-74
2024/02/04 01:20:22;;;;;;;1.20;1.00;;;;;;;;;;6157172;23;20063;-69
2024/02/04 01:22:51;;;;;;;1.27;1.02;;;;;;;;;;6158082;23;20390;-67
2024/02/04 01:25:17;;;;;;;1.15;1.05;;;;;;;;;;6159354;23;20437;-70
2024/02/04 01:27:43;;;;;;;2.10;1.20;;;;;;;;;;6185521;23;20004;-70
2024/02/04 01:30:09;;;;;;;3.20;1.38;;;;;;;;;;6185157;23;19997;-69
2024/02/04 01:32:35;;;;;;;1.30;1.20;;;;;;;;;;6158645;23;20005;-70
2024/02/04 01:35:01;;;;;;;1.88;1.15;;;;;;;;;;6185788;23;20012;-71
2024/02/04 01:37:27;;;;;;;1.67;1.10;;;;;;;;;;6158970;23;20012;-70
2024/02/04 01:39:53;;;;;;;3.42;1.20;;;;;;;;;;6159288;23;20013;-69
2024/02/04 01:42:20;;;;;;;1.33;0.93;;;;;;;;;;6185055;23;20023;-68
2024/02/04 01:44:46;;;;;;;1.15;0.95;;;;;;;;;;6156785;23;20055;-70
2024/02/04 01:47:14;;;;;;;0.95;0.70;;;;;;;;;;6182801;23;20005;-69
2024/02/04 01:49:41;;;;;;;2.60;1.00;;;;;;;;;;6158668;23;20005;-70
2024/02/04 01:52:09;;;;;;;1.02;0.90;;;;;;;;;;6184494;23;20004;-69
2024/02/04 01:54:40;;;;;;;0.98;0.98;;;;;;;;;;6134442;23;20088;-69
2024/02/04 01:57:06;;;;;;;0.73;0.70;;;;;;;;;;6184321;23;20009;-69
2024/02/04 01:59:32;;;;;;;1.65;1.08;;;;;;;;;;6158199;23;20135;-70
2024/02/04 02:02:01;;;;;;;1.58;0.77;;;;;;;;;;6134533;23;20019;-70
2024/02/04 02:04:27;;;;;;;1.33;0.85;;;;;;;;;;6158062;23;20020;-70
2024/02/04 02:06:56;;;;;;;1.10;0.90;;;;;;;;;;6157397;23;20036;-70
2024/02/04 02:09:22;;;;;;;1.73;1.00;;;;;;;;;;6185170;23;20052;-70
2024/02/04 02:12:01;;;;;;;1.63;1.05;;;;;;;;;;6158877;23;20008;-71
2024/02/04 02:14:32;;;;;;;0.93;0.85;;;;;;;;;;6158533;23;20342;-69
2024/02/04 02:17:03;;;;;;;0.77;0.70;;;;;;;;;;6184231;23;20349;-71
2024/02/04 02:19:48;;;;;;;2.83;0.90;;;;;;;;;;6134581;23;20004;-70
2024/02/04 02:22:22;;;;;;;1.80;0.65;;;;;;;;;;6135271;23;20426;-70
2024/02/04 02:24:51;;;;;;;1.17;1.05;;;;;;;;;;6158879;23;20418;-68
2024/02/04 02:27:17;;;;;;;1.65;1.00;;;;;;;;;;6158723;23;20009;-73
2024/02/04 02:29:43;;;;;;;1.20;1.10;;;;;;;;;;6157326;23;20067;-70
2024/02/04 02:32:11;;;;;;;0.90;0.70;;;;;;;;;;6184476;23;20001;-68
2024/02/04 02:34:37;;;;;;;0.90;0.90;;;;;;;;;;6182738;23;20008;-69
2024/02/04 02:37:38;;;;;;;0.65;0.65;;;;;;;;;;6158050;23;20036;-70
2024/02/04 02:40:20;;;;;;;0.88;0.77;;;;;;;;;;6184896;23;20000;-69
2024/02/04 02:42:48;;;;;;;1.70;0.73;;;;;;;;;;6158403;23;20012;-69
2024/02/04 02:45:21;;;;;;;0.80;0.80;;;;;;;;;;6133842;23;20143;-69
2024/02/04 02:47:51;;;;;;;1.67;0.93;;;;;;;;;;6184930;23;20009;-72
2024/02/04 02:50:17;;;;;;;0.90;0.80;;;;;;;;;;6184198;23;20324;-70
2024/02/04 02:52:43;;;;;;;1.30;1.20;;;;;;;;;;6183935;23;20071;-70
2024/02/04 02:55:10;;;;;;;2.40;0.90;;;;;;;;;;6158145;23;20009;-70
2024/02/04 02:57:36;;;;;;;0.60;0.57;;;;;;;;;;6183685;23;20009;-69
2024/02/04 03:00:03;;;;;;;0.60;0.60;;;;;;;;;;6184255;23;20073;-69
2024/02/04 03:02:32;;;;;;;0.80;0.70;;;;;;;;;;6183927;23;20005;-70
2024/02/04 03:04:58;;;;;;;2.55;0.70;;;;;;;;;;6180484;23;20416;-70
2024/02/04 03:07:25;;;;;;;0.70;0.70;;;;;;;;;;6158376;23;20005;-71
2024/02/04 03:09:54;;;;;;;1.13;0.73;;;;;;;;;;6184411;23;20001;-68
2024/02/04 03:12:21;;;;;;;0.50;0.50;;;;;;;;;;6183655;23;20005;-72
2024/02/04 03:14:46;;;;;;;1.35;1.25;;;;;;;;;;6157437;23;20012;-68
2024/02/04 03:17:13;;;;;;;0.65;0.65;;;;;;;;;;6157934;23;20008;-68
2024/02/04 03:19:39;;;;;;;0.70;0.65;;;;;;;;;;6158207;23;20005;-70
2024/02/04 03:22:04;;;;;;;0.75;0.75;;;;;;;;;;6184073;23;20005;-68
2024/02/04 03:24:32;;;;;;;0.70;0.50;;;;;;;;;;6157493;23;20373;-70
2024/02/04 03:26:58;;;;;;;0.52;0.35;;;;;;;;;;6157259;23;20013;-70
2024/02/04 03:29:24;;;;;;;1.17;0.43;;;;;;;;;;6157744;23;20012;-69
2024/02/04 03:31:49;;;;;;;1.10;0.73;;;;;;;;;;6157470;23;20016;-71
2024/02/04 03:34:17;;;;;;;0.95;0.40;;;;;;;;;;6183731;23;20081;-69
2024/02/04 03:36:43;;;;;;;0.75;0.50;;;;;;;;;;6157911;23;20445;-70
2024/02/04 03:39:08;;;;;;;0.57;0.57;;;;;;;;;;6184107;23;20004;-71
2024/02/04 03:41:34;;;;;;;0.47;0.40;;;;;;;;;;6157855;23;20039;-71
2024/02/04 03:43:59;;;;;;;0.57;0.57;;;;;;;;;;6183869;23;20008;-70
2024/02/04 03:46:25;;;;;;;0.80;0.50;;;;;;;;;;6156878;23;20009;-69
2024/02/04 03:48:51;;;;;;;0.93;0.50;;;;;;;;;;6184201;23;20079;-72
2024/02/04 03:51:19;;;;;;;0.90;0.50;;;;;;;;;;6184429;23;20059;-70
2024/02/04 03:53:47;;;;;;;0.65;0.47;;;;;;;;;;6132534;23;20092;-70
2024/02/04 03:56:15;;;;;;;1.48;0.50;;;;;;;;;;6134827;23;20434;-71
2024/02/04 03:58:42;;;;;;;0.55;0.50;;;;;;;;;;6185033;23;20422;-70
2024/02/04 04:01:13;;;;;;;0.65;0.60;;;;;;;;;;6158546;23;20009;-69
2024/02/04 04:03:44;;;;;;;0.47;0.47;;;;;;;;;;6158446;23;20093;-72
2024/02/04 04:06:14;;;;;;;2.13;0.40;;;;;;;;;;6158332;23;20024;-69
2024/02/04 04:08:41;;;;;;;0.50;0.50;;;;;;;;;;6185166;23;20012;-69
2024/02/04 04:11:10;;;;;;;1.05;0.65;;;;;;;;;;6157113;23;20342;-71
2024/02/04 04:13:37;;;;;;;1.63;0.60;;;;;;;;;;6159150;23;20009;-68
2024/02/04 04:16:04;;;;;;;0.40;0.40;;;;;;;;;;6186183;23;20005;-72
2024/02/04 04:18:32;;;;;;;0.50;0.47;;;;;;;;;;6158855;23;20005;-69
2024/02/04 04:20:59;;;;;;;2.63;0.85;;;;;;;;;;6159157;23;20012;-69
2024/02/04 04:23:26;;;;;;;0.70;0.45;;;;;;;;;;6159172;23;20005;-71
2024/02/04 04:25:52;;;;;;;0.50;0.50;;;;;;;;;;6185131;23;20016;-69
2024/02/04 04:28:18;;;;;;;0.32;0.32;;;;;;;;;;6160045;23;20004;-70
2024/02/04 04:30:44;;;;;;;0.25;0.25;;;;;;;;;;6184295;23;20017;-70
2024/02/04 04:33:12;;;;;;;0.30;0.30;;;;;;;;;;6185592;23;20032;-69
2024/02/04 04:35:38;;;;;;;0.38;0.35;;;;;;;;;;6159797;23;20001;-70
2024/02/04 04:38:04;;;;;;;1.10;0.30;;;;;;;;;;6161250;23;20009;-72
2024/02/04 04:40:31;;;;;;;0.40;0.35;;;;;;;;;;6165880;23;20091;-74
2024/02/04 04:42:58;;;;;;;1.05;0.68;;;;;;;;;;6166076;23;20032;-74
2024/02/04 04:45:25;;;;;;;2.20;0.50;;;;;;;;;;6190910;23;20218;-72
2024/02/04 04:47:51;;;;;;;0.40;0.40;;;;;;;;;;6186698;23;20007;-69
2024/02/04 04:50:20;;;;;;;0.28;0.28;;;;;;;;;;6184512;23;20001;-69
2024/02/04 04:52:46;;;;;;;0.22;0.22;;;;;;;;;;6184159;23;20009;-68
2024/02/04 04:55:12;;;;;;;0.30;0.30;;;;;;;;;;6158271;23;20456;-70
2024/02/04 04:57:39;;;;;;;0.32;0.30;;;;;;;;;;6158758;23;20009;-67
2024/02/04 05:00:09;;;;;;;0.40;0.40;;;;;;;;;;6184722;23;20430;-70
2024/02/04 05:02:51;;;;;;;1.75;0.32;;;;;;;;;;6181194;23;20059;-69
2024/02/04 05:05:17;;;;;;;0.22;0.20;;;;;;;;;;6184251;23;20394;-68
2024/02/04 05:07:44;;;;;;;0.40;0.35;;;;;;;;;;6184283;23;20084;-70
2024/02/04 05:10:09;;;;;;;0.40;0.40;;;;;;;;;;6156183;23;20096;-70
2024/02/04 05:12:38;;;;;;;0.60;0.30;;;;;;;;;;6133973;23;20504;-68
2024/02/04 05:15:05;;;;;;;0.50;0.50;;;;;;;;;;6159109;23;20072;-70
2024/02/04 05:17:33;;;;;;;0.20;0.20;;;;;;;;;;6134079;23;20315;-69
2024/02/04 05:19:59;;;;;;;1.65;0.70;;;;;;;;;;6158362;23;20024;-69
2024/02/04 05:22:25;;;;;;;0.30;0.30;;;;;;;;;;6182372;23;20005;-70
2024/02/04 05:24:51;;;;;;;0.35;0.30;;;;;;;;;;6157057;23;20012;-71
2024/02/04 05:27:17;;;;;;;0.40;0.40;;;;;;;;;;6184384;23;20080;-68
2024/02/04 05:29:43;;;;;;;0.60;0.50;;;;;;;;;;6157676;23;20004;-71
2024/02/04 05:32:09;;;;;;;0.30;0.30;;;;;;;;;;6183316;23;20020;-70
2024/02/04 05:34:37;;;;;;;0.47;0.40;;;;;;;;;;6183560;23;20480;-70
2024/02/04 05:37:03;;;;;;;0.30;0.30;;;;;;;;;;6184427;23;20028;-70
2024/02/04 05:39:29;;;;;;;0.38;0.38;;;;;;;;;;6156696;23;20016;-67
2024/02/04 05:41:56;;;;;;;0.70;0.35;;;;;;;;;;6183383;23;20063;-69
2024/02/04 05:44:23;;;;;;;1.45;0.50;;;;;;;;;;6183616;23;19997;-70
2024/02/04 05:46:49;;;;;;;0.52;0.30;;;;;;;;;;6157066;23;20013;-69
2024/02/04 05:49:17;;;;;;;0.40;0.40;;;;;;;;;;6132822;23;20071;-71
2024/02/04 05:51:43;;;;;;;0.45;0.40;;;;;;;;;;6156616;23;20087;-70
2024/02/04 05:54:09;;;;;;;0.47;0.47;;;;;;;;;;6156821;23;20031;-72
2024/02/04 05:56:35;;;;;;;0.73;0.52;;;;;;;;;;6183933;23;20012;-67
2024/02/04 05:59:02;;;;;;;0.57;0.38;;;;;;;;;;6184965;23;20100;-68
2024/02/04 06:01:28;;;;;;;0.43;0.40;;;;;;;;;;6157703;23;20009;-68
2024/02/04 06:03:58;;;;;;;0.52;0.50;;;;;;;;;;6184379;23;20001;-68
2024/02/04 06:06:24;;;;;;;0.40;0.40;;;;;;;;;;6183448;23;20040;-70
2024/02/04 06:08:52;;;;;;;0.40;0.40;;;;;;;;;;6157403;23;20327;-68
2024/02/04 06:11:17;;;;;;;0.95;0.60;;;;;;;;;;6133049;23;20067;-69
2024/02/04 06:13:44;;;;;;;0.45;0.45;;;;;;;;;;6183603;23;20009;-67
2024/02/04 06:16:12;;;;;;;0.70;0.70;;;;;;;;;;6184205;23;20021;-69
2024/02/04 06:18:39;;;;;;;2.63;0.40;;;;;;;;;;6157096;23;20009;-68
2024/02/04 06:21:05;;;;;;;1.92;0.40;;;;;;;;;;6157798;23;20008;-70
2024/02/04 06:23:32;;;;;;;0.63;0.40;;;;;;;;;;6157225;23;20449;-69
2024/02/04 06:25:58;;;;;;;1.02;0.30;;;;;;;;;;6183649;23;20008;-70
2024/02/04 06:28:29;;;;;;;0.77;0.50;;;;;;;;;;6159544;23;20067;-69
2024/02/04 06:30:55;;;;;;;0.82;0.50;;;;;;;;;;6134131;23;20032;-70
2024/02/04 06:33:23;;;;;;;0.52;0.52;;;;;;;;;;6158253;23;20341;-70
2024/02/04 06:35:51;;;;;;;0.52;0.40;;;;;;;;;;6185892;23;20009;-69
2024/02/04 06:38:18;;;;;;;1.65;0.73;;;;;;;;;;6160407;23;20016;-69
2024/02/04 06:40:45;;;;;;;0.50;0.50;;;;;;;;;;6186821;23;20282;-70
2024/02/04 06:43:12;;;;;;;0.85;0.60;;;;;;;;;;6159833;23;20005;-70
2024/02/04 06:45:37;;;;;;;0.68;0.50;;;;;;;;;;6185039;23;20091;-69
2024/02/04 06:48:03;;;;;;;0.77;0.47;;;;;;;;;;6157652;23;20040;-69
2024/02/04 06:50:31;;;;;;;1.75;0.65;;;;;;;;;;6157687;23;20418;-71
2024/02/04 06:52:58;;;;;;;0.40;0.38;;;;;;;;;;6158865;23;20009;-69
2024/02/04 06:55:24;;;;;;;0.32;0.30;;;;;;;;;;6157809;23;20009;-70
2024/02/04 06:57:51;;;;;;;0.40;0.40;;;;;;;;;;6184750;23;20016;-73
2024/02/04 07:00:21;;;;;;;0.63;0.60;;;;;;;;;;6158815;23;20020;-69
2024/02/04 07:02:46;;;;;;;0.75;0.40;;;;;;;;;;6182506;23;20032;-70
2024/02/04 07:05:15;;;;;;;0.30;0.30;;;;;;;;;;6154264;23;20403;-72
2024/02/04 07:07:40;;;;;;;1.08;0.60;;;;;;;;;;6153833;23;20315;-70
2024/02/04 07:10:07;;;;;;;0.50;0.50;;;;;;;;;;6154487;23;20017;-71
2024/02/04 07:12:32;;;;;;;0.32;0.32;;;;;;;;;;6154580;23;20505;-69
2024/02/04 07:14:58;;;;;;;0.50;0.50;;;;;;;;;;6154760;23;20042;-71
2024/02/04 07:17:24;;;;;;;0.30;0.30;;;;;;;;;;6154477;23;20431;-70
2024/02/04 07:19:50;;;;;;;1.02;0.40;;;;;;;;;;6154430;23;20373;-68
2024/02/04 07:22:15;;;;;;;0.60;0.40;;;;;;;;;;6180994;23;20087;-70
2024/02/04 07:24:41;;;;;;;0.20;0.20;;;;;;;;;;6154434;23;20374;-70
2024/02/04 07:27:06;;;;;;;1.17;0.40;;;;;;;;;;6181185;23;20419;-69
2024/02/04 07:29:32;;;;;;;0.32;0.32;;;;;;;;;;6154462;23;20386;-70
2024/02/04 07:31:58;;;;;;;0.60;0.40;;;;;;;;;;6180436;23;20434;-72
2024/02/04 07:34:23;;;;;;;0.40;0.25;;;;;;;;;;6154172;23;20029;-69
2024/02/04 07:36:52;;;;;;;0.30;0.30;;;;;;;;;;6180501;23;20081;-71
2024/02/04 07:39:17;;;;;;;0.30;0.30;;;;;;;;;;6154142;23;20020;-70
2024/02/04 07:41:43;;;;;;;0.30;0.30;;;;;;;;;;6180648;23;20001;-70
2024/02/04 07:44:08;;;;;;;0.43;0.40;;;;;;;;;;6154217;23;20028;-70
2024/02/04 07:46:34;;;;;;;0.85;0.30;;;;;;;;;;6181255;23;20072;-70
2024/02/04 07:48:59;;;;;;;1.58;0.30;;;;;;;;;;6156000;23;20017;-71
2024/02/04 07:51:25;;;;;;;0.57;0.40;;;;;;;;;;6156104;23;20252;-71
2024/02/04 07:53:50;;;;;;;0.22;0.22;;;;;;;;;;6155719;23;20012;-68
2024/02/04 07:56:16;;;;;;;0.30;0.30;;;;;;;;;;6156254;23;20074;-70
2024/02/04 07:58:42;;;;;;;0.50;0.35;;;;;;;;;;6181872;23;20005;-70
2024/02/04 08:01:07;;;;;;;0.30;0.30;;;;;;;;;;6156296;23;20090;-69
2024/02/04 08:03:32;;;;;;;0.40;0.40;;;;;;;;;;6156142;23;20005;-70
2024/02/04 08:05:58;;;;;;;0.30;0.30;;;;;;;;;;6182022;23;20527;-71
2024/02/04 08:08:23;;;;;;;0.57;0.40;;;;;;;;;;6155924;23;20020;-69
2024/02/04 08:10:49;;;;;;;0.75;0.35;;;;;;;;;;6155721;23;20326;-70
2024/02/04 08:13:14;;;;;;;0.70;0.50;;;;;;;;;;6182397;23;20039;-70
2024/02/04 08:15:40;;;;;;;0.32;0.22;;;;;;;;;;6155864;23;20005;-71
2024/02/04 08:18:06;;;;;;;0.73;0.38;;;;;;;;;;6182227;23;20036;-71
2024/02/04 08:20:31;;;;;;;0.60;0.45;;;;;;;;;;6155918;23;20148;-70
2024/02/04 08:22:57;;;;;;;0.57;0.47;;;;;;;;;;6181959;23;20009;-70
2024/02/04 08:25:22;;;;;;;0.30;0.30;;;;;;;;;;6155781;23;20000;-70
2024/02/04 08:27:48;;;;;;;1.38;0.52;;;;;;;;;;6182160;23;20015;-71
2024/02/04 08:30:14;;;;;;;0.40;0.40;;;;;;;;;;6155790;23;20093;-71
2024/02/04 08:32:39;;;;;;;1.13;0.40;;;;;;;;;;6155364;23;20005;-71
2024/02/04 08:35:05;;;;;;;1.33;0.40;;;;;;;;;;6182509;23;20460;-70
2024/02/04 08:37:32;;;;;;;0.30;0.30;;;;;;;;;;6182044;23;20035;-71
2024/02/04 08:39:58;;;;;;;0.38;0.38;;;;;;;;;;6181733;23;20009;-69
2024/02/04 08:42:23;;;;;;;0.88;0.55;;;;;;;;;;6155554;23;20020;-71
2024/02/04 08:44:50;;;;;;;0.43;0.43;;;;;;;;;;6155494;23;20422;-71
2024/02/04 08:47:16;;;;;;;0.60;0.60;;;;;;;;;;6155808;23;20008;-70
2024/02/04 08:49:44;;;;;;;0.40;0.40;;;;;;;;;;6155467;23;20005;-71
2024/02/04 08:52:11;;;;;;;0.30;0.30;;;;;;;;;;6155884;23;20438;-69
2024/02/04 08:54:38;;;;;;;0.63;0.30;;;;;;;;;;6155389;23;20017;-70
2024/02/04 08:57:04;;;;;;;0.30;0.30;;;;;;;;;;6155451;23;20005;-70
2024/02/04 08:59:29;;;;;;;0.30;0.30;;;;;;;;;;6181627;23;20058;-71
2024/02/04 09:01:55;;;;;;;0.52;0.50;;;;;;;;;;6155081;23;20008;-70
2024/02/04 09:04:21;;;;;;;0.50;0.50;;;;;;;;;;6181652;23;20067;-71
2024/02/04 09:06:47;;;;;;;0.30;0.30;;;;;;;;;;6155260;23;20020;-70
2024/02/04 09:09:13;;;;;;;0.43;0.40;;;;;;;;;;6181929;23;20557;-71
2024/02/04 09:11:39;;;;;;;0.60;0.50;;;;;;;;;;6181979;23;20449;-71
2024/02/04 09:14:05;;;;;;;0.40;0.40;;;;;;;;;;6155042;23;20043;-70
2024/02/04 09:16:30;;;;;;;0.50;0.30;;;;;;;;;;6181542;23;20076;-70
2024/02/04 09:18:56;;;;;;;0.50;0.25;;;;;;;;;;6155112;23;20005;-71
2024/02/04 09:21:22;;;;;;;0.38;0.30;;;;;;;;;;6155152;23;20012;-71
2024/02/04 09:23:48;;;;;;;1.00;0.52;;;;;;;;;;6181643;23;20425;-68
2024/02/04 09:26:13;;;;;;;0.47;0.47;;;;;;;;;;6181276;23;20009;-69
2024/02/04 09:28:39;;;;;;;0.43;0.32;;;;;;;;;;6182035;23;20011;-70
2024/02/04 09:31:08;;;;;;;0.80;0.40;;;;;;;;;;6181612;23;20155;-71
2024/02/04 09:33:34;;;;;;;0.40;0.40;;;;;;;;;;6155158;23;20377;-68
2024/02/04 09:35:59;;;;;;;1.27;0.20;;;;;;;;;;6154901;23;20012;-70
2024/02/04 09:38:24;;;;;;;0.22;0.22;;;;;;;;;;6181684;23;20381;-71
2024/02/04 09:40:50;;;;;;;0.35;0.35;;;;;;;;;;6181242;23;20012;-72
2024/02/04 09:43:16;;;;;;;0.73;0.43;;;;;;;;;;6155226;23;20311;-71
2024/02/04 09:45:42;;;;;;;3.50;0.55;;;;;;;;;;6181433;23;20326;-71
2024/02/04 09:48:09;;;;;;;0.40;0.30;;;;;;;;;;6155072;23;20434;-71
2024/02/04 09:50:34;;;;;;;0.35;0.35;;;;;;;;;;6154534;23;20017;-71
2024/02/04 09:53:03;;;;;;;1.00;0.50;;;;;;;;;;6181352;23;20005;-69
2024/02/04 09:55:30;;;;;;;0.85;0.40;;;;;;;;;;6181163;23;20415;-69
2024/02/04 09:57:56;;;;;;;0.30;0.30;;;;;;;;;;6154907;23;20020;-70
2024/02/04 10:00:22;;;;;;;0.40;0.40;;;;;;;;;;6181473;23;20005;-70
2024/02/04 10:02:48;;;;;;;1.15;0.30;;;;;;;;;;6155134;23;20005;-70
2024/02/04 10:05:15;;;;;;;2.40;0.30;;;;;;;;;;6155298;23;20025;-70
2024/02/04 10:07:41;;;;;;;0.43;0.30;;;;;;;;;;6155353;23;20354;-70
2024/02/04 10:10:08;;;;;;;0.30;0.30;;;;;;;;;;6153814;23;20446;-72
2024/02/04 10:12:35;;;;;;;0.40;0.40;;;;;;;;;;6154418;23;20095;-72
2024/02/04 10:15:02;;;;;;;0.30;0.30;;;;;;;;;;6154115;23;20016;-70
2024/02/04 10:17:30;;;;;;;0.50;0.50;;;;;;;;;;6154681;23;20009;-68
2024/02/04 10:19:56;;;;;;;0.82;0.60;;;;;;;;;;6180941;23;20301;-71
2024/02/04 10:22:22;;;;;;;1.40;0.60;;;;;;;;;;6181298;23;20381;-69
2024/02/04 10:24:48;;;;;;;1.85;0.50;;;;;;;;;;6154337;23;20040;-70
2024/02/04 10:27:17;;;;;;;1.08;0.30;;;;;;;;;;6154229;23;20009;-72
2024/02/04 10:29:43;;;;;;;0.75;0.40;;;;;;;;;;6154457;23;20001;-71
2024/02/04 10:32:08;;;;;;;0.80;0.30;;;;;;;;;;6153994;23;20055;-69
2024/02/04 10:34:37;;;;;;;2.92;0.50;;;;;;;;;;6181242;23;20012;-71
2024/02/04 10:37:03;;;;;;;1.00;0.50;;;;;;;;;;6181067;23;20012;-69
2024/02/04 10:39:29;;;;;;;1.05;0.50;;;;;;;;;;6181783;23;20318;-71
2024/02/04 10:41:58;;;;;;;0.57;0.40;;;;;;;;;;6180569;23;20441;-69
2024/02/04 10:44:24;;;;;;;0.50;0.40;;;;;;;;;;6154420;23;20088;-69
2024/02/04 10:46:51;;;;;;;0.30;0.30;;;;;;;;;;6154220;23;20028;-70
2024/02/04 10:49:18;;;;;;;1.95;0.40;;;;;;;;;;6181009;23;20426;-70
2024/02/04 10:51:45;;;;;;;0.40;0.40;;;;;;;;;;6154699;23;20009;-71
2024/02/04 10:54:18;;;;;;;1.08;0.40;;;;;;;;;;6155168;23;20040;-70
2024/02/04 10:56:46;;;;;;;2.53;0.73;;;;;;;;;;6181488;23;20004;-71
2024/02/04 10:59:17;;;;;;;0.50;0.50;;;;;;;;;;6180883;23;20076;-70
2024/02/04 11:01:45;;;;;;;0.43;0.40;;;;;;;;;;6180746;23;20005;-71
2024/02/04 11:04:12;;;;;;;0.60;0.50;;;;;;;;;;6153956;23;20005;-70
2024/02/04 11:06:40;;;;;;;0.35;0.35;;;;;;;;;;6180953;23;20059;-68
2024/02/04 11:09:09;;;;;;;0.90;0.40;;;;;;;;;;6153902;23;20315;-70
2024/02/04 11:11:36;;;;;;;2.05;0.32;;;;;;;;;;6180497;23;20083;-68
2024/02/04 11:14:05;;;;;;;0.68;0.40;;;;;;;;;;6180242;23;20056;-71
2024/02/04 11:16:44;;;;;;;0.63;0.45;;;;;;;;;;6180121;23;20071;-71
2024/02/04 11:19:45;;;;;;;0.77;0.50;;;;;;;;;;6153867;23;20005;-71
2024/02/04 11:22:32;;;;;;;0.50;0.45;;;;;;;;;;6181793;23;20334;-72
2024/02/04 11:25:19;;;;;;;1.02;0.40;;;;;;;;;;6182366;23;20043;-70
2024/02/04 11:27:46;;;;;;;1.45;0.30;;;;;;;;;;6157109;23;20418;-70
2024/02/04 11:30:12;;;;;;;0.47;0.38;;;;;;;;;;6155697;23;20108;-70
2024/02/04 11:32:37;;;;;;;1.05;0.60;;;;;;;;;;6183253;23;20031;-69
2024/02/04 11:35:07;;;;;;;1.55;0.38;;;;;;;;;;6156010;23;20068;-68
2024/02/04 11:37:33;;;;;;;0.50;0.30;;;;;;;;;;6155842;23;20008;-69
2024/02/04 11:39:59;;;;;;;0.50;0.50;;;;;;;;;;6155522;23;20084;-72
2024/02/04 11:42:25;;;;;;;1.20;0.70;;;;;;;;;;6155805;23;20024;-69
2024/02/04 11:45:09;;;;;;;0.60;0.40;;;;;;;;;;6182000;23;20489;-70
2024/02/04 11:47:37;;;;;;;0.47;0.47;;;;;;;;;;6182225;23;20005;-69
2024/02/04 11:50:03;;;;;;;0.95;0.60;;;;;;;;;;6155416;23;20064;-69
2024/02/04 11:52:29;;;;;;;1.55;0.55;;;;;;;;;;6155891;23;20055;-70
2024/02/04 11:54:54;;;;;;;0.95;0.30;;;;;;;;;;6155517;23;20004;-70
2024/02/04 11:57:21;;;;;;;0.20;0.20;;;;;;;;;;6182517;23;20071;-71
2024/02/04 11:59:47;;;;;;;1.90;0.60;;;;;;;;;;6182434;23;20405;-70
2024/02/04 12:02:16;;;;;;;2.58;0.47;;;;;;;;;;6181989;23;20431;-70
2024/02/04 12:04:43;;;;;;;0.85;0.75;;;;;;;;;;6182192;23;20382;-69
2024/02/04 12:07:08;;;;;;;0.65;0.52;;;;;;;;;;6155404;23;20012;-71
2024/02/04 12:09:35;;;;;;;0.43;0.43;;;;;;;;;;6155989;23;20013;-70
2024/02/04 12:12:03;;;;;;;0.65;0.45;;;;;;;;;;6155483;23;20016;-72
2024/02/04 12:14:29;;;;;;;2.95;0.82;;;;;;;;;;6155421;23;20005;-71
2024/02/04 12:16:57;;;;;;;0.68;0.40;;;;;;;;;;6155306;23;20083;-73
2024/02/04 12:19:24;;;;;;;0.93;0.40;;;;;;;;;;6156135;23;20005;-72
2024/02/04 12:21:50;;;;;;;0.43;0.43;;;;;;;;;;6182276;23;20005;-71
2024/02/04 12:24:16;;;;;;;0.68;0.60;;;;;;;;;;6181801;23;20477;-69
2024/02/04 12:26:42;;;;;;;0.63;0.40;;;;;;;;;;6182142;23;20032;-71
2024/02/04 12:29:08;;;;;;;0.45;0.30;;;;;;;;;;6155585;23;20005;-70
2024/02/04 12:31:34;;;;;;;0.90;0.35;;;;;;;;;;6155545;23;20381;-70
2024/02/04 12:34:02;;;;;;;0.77;0.45;;;;;;;;;;6181374;23;20001;-72
2024/02/04 12:36:29;;;;;;;1.25;0.50;;;;;;;;;;6155695;23;20032;-68
2024/02/04 12:39:09;;;;;;;0.73;0.40;;;;;;;;;;6130957;23;20027;-68
2024/02/04 12:41:35;;;;;;;0.60;0.30;;;;;;;;;;6157825;23;20517;-69
2024/02/04 12:44:03;;;;;;;0.80;0.35;;;;;;;;;;6155480;23;20012;-70
2024/02/04 12:46:28;;;;;;;0.75;0.30;;;;;;;;;;6155402;23;20075;-69
2024/02/04 12:48:57;;;;;;;0.43;0.30;;;;;;;;;;6182217;23;20035;-69
2024/02/04 12:51:31;;;;;;;0.30;0.30;;;;;;;;;;6155384;23;20198;-72
2024/02/04 12:54:22;;;;;;;0.40;0.40;;;;;;;;;;6181822;23;20001;-70
2024/02/04 12:56:52;;;;;;;0.55;0.43;;;;;;;;;;6148406;23;20013;-69
2024/02/04 12:59:34;;;;;;;0.55;0.30;;;;;;;;;;6182049;23;20001;-69
2024/02/04 13:02:08;;;;;;;0.80;0.40;;;;;;;;;;6155146;23;20005;-69
2024/02/04 13:04:37;;;;;;;0.85;0.43;;;;;;;;;;6155212;23;20017;-69
2024/02/04 13:07:07;;;;;;;2.05;0.57;;;;;;;;;;6155750;23;20032;-70
2024/02/04 13:09:32;;;;;;;0.45;0.30;;;;;;;;;;6155316;23;20065;-71
2024/02/04 13:12:09;;;;;;;0.47;0.40;;;;;;;;;;6181813;23;20096;-70
2024/02/04 13:14:38;;;;;;;1.45;0.30;;;;;;;;;;6156548;23;20075;-72
2024/02/04 13:17:04;;;;;;;0.60;0.40;;;;;;;;;;6155205;23;20005;-71
2024/02/04 13:19:38;;;;;;;0.63;0.40;;;;;;;;;;6181683;23;20390;-70
2024/02/04 13:22:06;;;;;;;0.88;0.35;;;;;;;;;;6155965;23;20019;-71
2024/02/04 13:24:32;;;;;;;0.98;0.40;;;;;;;;;;6182059;23;20055;-72
2024/02/04 13:27:00;;;;;;;0.68;0.40;;;;;;;;;;6155127;23;20009;-71
2024/02/04 13:29:28;;;;;;;0.30;0.30;;;;;;;;;;6182100;23;20027;-69
2024/02/04 13:31:54;;;;;;;1.52;0.35;;;;;;;;;;6181470;23;20005;-70
2024/02/04 13:34:20;;;;;;;0.73;0.38;;;;;;;;;;6154354;23;20032;-72
2024/02/04 13:36:46;;;;;;;0.70;0.63;;;;;;;;;;6181654;23;20001;-71
2024/02/04 13:39:12;;;;;;;0.93;0.40;;;;;;;;;;6181288;23;20067;-71
2024/02/04 13:41:41;;;;;;;2.85;0.40;;;;;;;;;;6155002;23;20445;-71
2024/02/04 13:44:06;;;;;;;0.90;0.35;;;;;;;;;;6145945;23;20024;-71
2024/02/04 13:46:33;;;;;;;0.25;0.25;;;;;;;;;;6181394;23;20072;-70
2024/02/04 13:48:59;;;;;;;0.93;0.50;;;;;;;;;;6181375;23;20021;-69
2024/02/04 13:51:24;;;;;;;1.38;0.50;;;;;;;;;;6182411;23;20001;-71
2024/02/04 13:53:49;;;;;;;0.47;0.47;;;;;;;;;;6181688;23;20487;-72
2024/02/04 13:56:18;;;;;;;0.55;0.30;;;;;;;;;;6154554;23;20005;-70
2024/02/04 13:58:44;;;;;;;1.08;0.60;;;;;;;;;;6155022;23;20016;-69
2024/02/04 14:01:10;;;;;;;0.68;0.68;;;;;;;;;;6181091;23;20326;-71
2024/02/04 14:03:36;;;;;;;1.35;0.57;;;;;;;;;;6154382;23;20008;-71
2024/02/04 14:06:03;;;;;;;9.18;0.90;;;;;;;;;;6181047;23;20031;-69
2024/02/04 14:08:29;;;;;;;0.57;0.40;;;;;;;;;;6181221;23;20005;-70
2024/02/04 14:10:56;;;;;;;1.52;0.50;;;;;;;;;;6181108;23;20016;-72
2024/02/04 14:13:22;;;;;;;0.50;0.50;;;;;;;;;;6154247;23;20004;-71
2024/02/04 14:15:47;;;;;;;0.65;0.50;;;;;;;;;;6181110;23;20024;-70
2024/02/04 14:18:13;;;;;;;1.00;0.47;;;;;;;;;;6154143;23;20020;-71
2024/02/04 14:20:38;;;;;;;0.80;0.55;;;;;;;;;;6154577;23;20015;-70
2024/02/04 14:23:04;;;;;;;0.95;0.63;;;;;;;;;;6154203;23;20008;-70
2024/02/04 14:25:30;;;;;;;1.08;0.60;;;;;;;;;;6154546;23;20060;-70
2024/02/04 14:27:55;;;;;;;0.70;0.60;;;;;;;;;;6154265;23;20016;-72
2024/02/04 14:30:21;;;;;;;0.75;0.40;;;;;;;;;;6181045;23;20577;-70
2024/02/04 14:32:46;;;;;;;1.08;0.50;;;;;;;;;;6181567;23;20076;-71
2024/02/04 14:35:12;;;;;;;0.50;0.50;;;;;;;;;;6180554;23;20001;-69
2024/02/04 14:37:39;;;;;;;0.73;0.40;;;;;;;;;;6154204;23;20009;-69
2024/02/04 14:40:06;;;;;;;0.40;0.40;;;;;;;;;;6180584;23;20055;-71
2024/02/04 14:42:32;;;;;;;1.45;0.70;;;;;;;;;;6180676;23;20025;-69
2024/02/04 14:45:00;;;;;;;0.50;0.47;;;;;;;;;;6180871;23;20426;-69